Time;durP1;ratioP1;P1;durP2;ratioP2;P2;SDS_P1;SDS_P2;PMS_P1;PMS_P2;Temp;Humidity;BMP_temperature;BMP_pressure;BME280_temperature;BME280_humidity;BME280_pressure;Samples;Min_cycle;Max_cycle;Signal;HPM_P1;HPM_P2
2023/07/22 00:02:17;;;;;;;20.63;6.22;;;12.80;99.90;;;;;;5051766;28;20037;-68
2023/07/22 00:04:42;;;;;;;11.60;5.93;;;12.80;99.90;;;;;;5044806;28;20485;-68
2023/07/22 00:07:08;;;;;;;15.18;6.75;;;12.90;99.90;;;;;;5044001;28;20391;-68
2023/07/22 00:09:34;;;;;;;18.27;6.68;;;12.80;99.90;;;;;;5044450;28;20037;-67
2023/07/22 00:12:00;;;;;;;13.32;6.38;;;12.80;99.90;;;;;;5042307;28;20044;-68
2023/07/22 00:14:25;;;;;;;12.63;6.88;;;12.70;99.90;;;;;;5048112;28;20037;-68
2023/07/22 00:16:51;;;;;;;10.52;5.45;;;12.70;99.90;;;;;;5045377;28;20076;-68
2023/07/22 00:19:17;;;;;;;13.57;6.38;;;12.70;99.90;;;;;;5050059;28;20116;-68
2023/07/22 00:21:42;;;;;;;12.80;6.13;;;12.60;99.90;;;;;;5040803;28;20403;-67
2023/07/22 00:24:08;;;;;;;14.27;6.55;;;12.80;99.90;;;;;;5049439;28;20045;-68
2023/07/22 00:26:34;;;;;;;14.90;6.28;;;12.50;99.90;;;;;;5042533;28;20056;-68
2023/07/22 00:28:59;;;;;;;12.35;6.03;;;12.60;99.90;;;;;;5043977;28;20057;-68
2023/07/22 00:31:25;;;;;;;10.25;6.28;;;12.50;99.90;;;;;;5042156;28;20025;-68
2023/07/22 00:33:51;;;;;;;14.43;6.20;;;12.50;99.90;;;;;;5045678;28;20124;-68
2023/07/22 00:36:17;;;;;;;13.02;6.25;;;12.50;99.90;;;;;;5042999;28;20505;-68
2023/07/22 00:38:43;;;;;;;9.40;5.60;;;12.50;99.90;;;;;;5044080;28;20049;-68
2023/07/22 00:41:08;;;;;;;11.60;5.63;;;12.40;99.90;;;;;;5043789;28;20090;-67
2023/07/22 00:43:34;;;;;;;11.60;5.75;;;12.40;99.90;;;;;;5043501;28;20094;-67
2023/07/22 00:45:59;;;;;;;13.27;6.13;;;12.40;99.90;;;;;;5047145;28;20167;-68
2023/07/22 00:48:26;;;;;;;11.68;5.60;;;12.50;99.90;;;;;;5040458;28;20553;-67
2023/07/22 00:50:52;;;;;;;13.63;5.53;;;12.30;99.90;;;;;;5043073;28;20041;-68
2023/07/22 00:53:18;;;;;;;8.80;4.78;;;12.30;99.90;;;;;;5043083;28;20148;-68
2023/07/22 00:55:45;;;;;;;12.00;5.88;;;12.30;99.90;;;;;;5046566;28;20400;-67
2023/07/22 00:58:11;;;;;;;12.13;5.55;;;12.20;99.90;;;;;;5051632;28;20041;-68
2023/07/22 01:00:36;;;;;;;12.80;5.78;;;12.10;99.90;;;;;;5043304;28;20033;-68
2023/07/22 01:03:03;;;;;;;11.95;5.18;;;12.20;99.90;;;;;;5040733;28;20119;-68
2023/07/22 01:05:29;;;;;;;11.10;4.95;;;12.10;99.90;;;;;;5045701;28;20409;-67
2023/07/22 01:07:55;;;;;;;13.20;4.78;;;12.10;99.90;;;;;;5041398;28;20061;-67
2023/07/22 01:10:22;;;;;;;11.07;4.72;;;12.10;99.90;;;;;;5043203;28;20055;-68
2023/07/22 01:12:47;;;;;;;14.25;5.68;;;12.10;99.90;;;;;;5043455;28;20044;-68
2023/07/22 01:15:14;;;;;;;11.93;4.72;;;12.20;99.90;;;;;;5050017;28;20045;-68
2023/07/22 01:17:39;;;;;;;10.77;5.10;;;12.00;99.90;;;;;;5042597;28;20041;-68
2023/07/22 01:20:06;;;;;;;11.25;5.47;;;12.20;99.90;;;;;;5042030;28;20415;-68
2023/07/22 01:22:33;;;;;;;12.38;4.60;;;12.00;99.90;;;;;;5045660;28;20033;-68
2023/07/22 01:25:00;;;;;;;12.77;5.00;;;12.30;99.90;;;;;;5043036;28;20085;-68
2023/07/22 01:27:26;;;;;;;10.10;5.03;;;12.00;99.90;;;;;;5039680;28;20065;-68
2023/07/22 01:29:52;;;;;;;11.68;5.15;;;12.00;99.90;;;;;;5039848;28;20122;-67
2023/07/22 01:32:18;;;;;;;11.85;4.70;;;12.10;99.90;;;;;;5046702;28;20072;-68
2023/07/22 01:34:44;;;;;;;9.88;4.95;;;12.00;99.90;;;;;;5046815;28;20367;-68
2023/07/22 01:37:09;;;;;;;11.32;5.25;;;12.00;99.90;;;;;;5039221;28;20043;-68
2023/07/22 01:39:35;;;;;;;14.40;5.38;;;12.00;99.90;;;;;;5041452;28;20054;-67
2023/07/22 01:42:02;;;;;;;8.55;4.85;;;12.00;99.90;;;;;;5042819;28;20183;-66
2023/07/22 01:44:28;;;;;;;11.10;5.43;;;12.00;99.90;;;;;;5049867;28;20537;-68
2023/07/22 01:46:54;;;;;;;8.25;5.68;;;12.00;99.90;;;;;;5038908;28;20049;-68
2023/07/22 01:49:20;;;;;;;13.63;5.60;;;12.00;99.90;;;;;;5039244;28;20493;-69
2023/07/22 01:51:45;;;;;;;11.10;5.40;;;11.90;99.90;;;;;;5040888;28;20056;-68
2023/07/22 01:54:12;;;;;;;9.63;4.90;;;12.00;99.90;;;;;;5049338;28;20151;-69
2023/07/22 01:56:38;;;;;;;10.00;5.18;;;12.00;99.90;;;;;;5042174;28;20094;-68
2023/07/22 01:59:04;;;;;;;11.20;5.13;;;11.80;99.90;;;;;;5042125;28;20052;-68
2023/07/22 02:01:30;;;;;;;10.27;4.75;;;11.70;99.90;;;;;;5045836;28;20041;-68
2023/07/22 02:03:56;;;;;;;15.02;5.13;;;12.00;99.90;;;;;;5047869;28;20052;-68
2023/07/22 02:06:22;;;;;;;14.75;4.95;;;11.70;99.90;;;;;;5038879;28;20428;-68
2023/07/22 02:08:48;;;;;;;13.10;4.88;;;11.80;99.90;;;;;;5045792;28;20041;-68
2023/07/22 02:11:14;;;;;;;9.38;4.30;;;11.60;99.90;;;;;;5041852;28;20098;-68
2023/07/22 02:13:39;;;;;;;12.10;4.68;;;11.60;99.90;;;;;;5049947;28;20045;-68
2023/07/22 02:16:05;;;;;;;9.25;4.60;;;11.60;99.90;;;;;;5048397;28;20059;-68
2023/07/22 02:18:31;;;;;;;10.05;4.57;;;11.60;99.90;;;;;;5041557;28;20041;-68
2023/07/22 02:20:57;;;;;;;7.25;3.95;;;11.60;99.90;;;;;;5041860;28;20492;-68
2023/07/22 02:23:24;;;;;;;8.15;4.35;;;11.50;99.90;;;;;;5046408;28;20045;-68
2023/07/22 02:25:51;;;;;;;8.48;4.25;;;11.40;99.90;;;;;;5043515;28;20056;-67
2023/07/22 02:28:21;;;;;;;8.57;3.90;;;11.40;99.90;;;;;;5039712;28;20084;-68
2023/07/22 02:30:47;;;;;;;6.65;4.20;;;11.30;99.90;;;;;;5041623;28;20087;-68
2023/07/22 02:33:13;;;;;;;10.48;4.43;;;11.30;99.90;;;;;;5043386;28;20056;-68
2023/07/22 02:35:40;;;;;;;10.35;5.15;;;11.20;99.90;;;;;;5041268;28;20045;-68
2023/07/22 02:38:06;;;;;;;15.10;5.10;;;11.20;99.90;;;;;;5041269;28;20126;-68
2023/07/22 02:40:34;;;;;;;11.73;5.43;;;11.20;99.90;;;;;;5041343;28;20045;-68
2023/07/22 02:43:00;;;;;;;11.30;5.68;;;11.30;99.90;;;;;;5049405;28;20056;-68
2023/07/22 02:45:26;;;;;;;12.20;5.00;;;11.30;99.90;;;;;;5049737;28;20037;-68
2023/07/22 02:47:52;;;;;;;10.50;5.40;;;11.30;99.90;;;;;;5038450;28;20049;-69
2023/07/22 02:50:18;;;;;;;14.35;5.40;;;11.30;99.90;;;;;;5038144;28;20052;-68
2023/07/22 02:52:43;;;;;;;14.25;5.43;;;11.20;99.90;;;;;;5046518;28;20052;-68
2023/07/22 02:55:12;;;;;;;9.40;5.05;;;11.20;99.90;;;;;;5044502;28;20044;-68
2023/07/22 02:57:39;;;;;;;11.15;5.25;;;11.20;99.90;;;;;;5038525;28;20061;-68
2023/07/22 03:00:09;;;;;;;11.27;5.35;;;11.20;99.90;;;;;;5041642;28;20060;-68
2023/07/22 03:02:35;;;;;;;11.05;5.00;;;11.10;99.90;;;;;;5041101;28;20048;-68
2023/07/22 03:05:03;;;;;;;9.73;5.07;;;11.10;99.90;;;;;;5048863;28;20236;-68
2023/07/22 03:07:28;;;;;;;11.20;5.95;;;11.40;99.90;;;;;;5041250;28;20045;-67
2023/07/22 03:09:54;;;;;;;12.05;5.00;;;11.10;99.90;;;;;;5048279;28;20072;-67
2023/07/22 03:12:19;;;;;;;13.63;5.38;;;11.10;99.90;;;;;;5038495;28;20103;-68
2023/07/22 03:14:45;;;;;;;11.10;5.22;;;11.10;99.90;;;;;;5042141;28;20045;-67
2023/07/22 03:17:14;;;;;;;11.50;5.30;;;11.10;99.90;;;;;;5049550;28;20404;-66
2023/07/22 03:19:40;;;;;;;12.00;5.55;;;11.10;99.90;;;;;;5045895;28;20049;-68
2023/07/22 03:22:05;;;;;;;9.15;5.45;;;11.10;99.90;;;;;;5049630;28;20396;-67
2023/07/22 03:24:31;;;;;;;12.35;5.95;;;11.20;99.90;;;;;;5041637;28;20041;-67
2023/07/22 03:26:57;;;;;;;9.90;5.15;;;11.10;99.90;;;;;;5048749;28;20057;-68
2023/07/22 03:29:24;;;;;;;13.85;6.30;;;11.10;99.90;;;;;;5043047;28;20554;-67
2023/07/22 03:31:50;;;;;;;10.98;5.88;;;11.10;99.90;;;;;;5041615;28;20133;-67
2023/07/22 03:34:15;;;;;;;12.23;6.25;;;11.30;99.90;;;;;;5042023;28;20800;-68
2023/07/22 03:36:41;;;;;;;11.25;5.20;;;11.20;99.90;;;;;;5050400;28;20048;-68
2023/07/22 03:39:08;;;;;;;11.30;5.68;;;11.20;99.90;;;;;;5052609;28;20072;-68
2023/07/22 03:41:33;;;;;;;10.10;4.65;;;11.20;99.90;;;;;;5051118;28;20120;-68
2023/07/22 03:43:59;;;;;;;7.72;4.95;;;11.20;99.90;;;;;;5052844;28;20804;-68
2023/07/22 03:46:25;;;;;;;9.98;5.57;;;11.20;99.90;;;;;;5044175;28;20051;-67
2023/07/22 03:48:50;;;;;;;12.05;6.35;;;11.20;99.90;;;;;;5053150;28;20037;-67
2023/07/22 03:51:16;;;;;;;16.60;6.30;;;11.30;99.90;;;;;;5045409;28;20725;-68
2023/07/22 03:53:42;;;;;;;14.02;5.78;;;11.40;99.90;;;;;;5042946;28;20048;-68
2023/07/22 03:56:07;;;;;;;11.20;5.63;;;11.30;99.90;;;;;;5044741;28;20049;-68
2023/07/22 03:58:33;;;;;;;12.80;6.80;;;11.30;99.90;;;;;;5052546;28;20392;-68
2023/07/22 04:00:59;;;;;;;12.77;6.30;;;11.40;99.90;;;;;;5040279;28;20045;-68
2023/07/22 04:03:24;;;;;;;10.60;5.63;;;11.60;99.90;;;;;;5041435;28;20490;-68
2023/07/22 04:05:57;;;;;;;11.23;6.00;;;11.70;99.90;;;;;;5048733;28;20106;-67
2023/07/22 04:08:22;;;;;;;10.98;6.35;;;11.50;99.90;;;;;;5048087;28;20044;-68
2023/07/22 04:10:56;;;;;;;11.52;5.78;;;11.50;99.90;;;;;;5051766;28;20045;-68
2023/07/22 04:13:22;;;;;;;12.95;6.03;;;11.50;99.90;;;;;;5045188;28;20094;-68
2023/07/22 04:15:48;;;;;;;11.23;5.75;;;11.60;99.90;;;;;;5043461;28;20088;-69
2023/07/22 04:18:18;;;;;;;11.15;6.13;;;11.80;99.90;;;;;;5043815;28;20068;-68
2023/07/22 04:20:45;;;;;;;14.65;6.45;;;11.70;99.90;;;;;;5045967;28;20087;-68
2023/07/22 04:23:11;;;;;;;12.30;5.90;;;11.80;99.90;;;;;;5041875;28;20404;-68
2023/07/22 04:25:44;;;;;;;10.60;6.20;;;11.80;99.90;;;;;;5051908;28;20047;-67
2023/07/22 04:28:09;;;;;;;12.00;5.43;;;11.80;99.90;;;;;;5048798;28;20059;-68
2023/07/22 04:30:36;;;;;;;12.50;6.38;;;11.80;99.90;;;;;;5050394;28;20053;-68
2023/07/22 04:33:02;;;;;;;14.15;6.57;;;11.90;99.90;;;;;;5043677;28;20056;-68
2023/07/22 04:35:35;;;;;;;12.02;6.35;;;11.90;99.90;;;;;;5041820;28;20051;-66
2023/07/22 04:38:01;;;;;;;12.75;6.25;;;11.90;99.90;;;;;;5051564;28;20048;-68
2023/07/22 04:40:26;;;;;;;14.55;6.63;;;12.00;99.90;;;;;;5051246;28;20377;-68
2023/07/22 04:42:52;;;;;;;13.48;6.30;;;12.00;99.90;;;;;;5043783;28;20392;-68
2023/07/22 04:45:18;;;;;;;13.82;6.60;;;12.20;99.90;;;;;;5044372;28;20037;-68
2023/07/22 04:47:46;;;;;;;13.82;7.40;;;12.10;99.90;;;;;;5042727;28;20448;-68
2023/07/22 04:50:13;;;;;;;15.52;6.75;;;12.20;99.90;;;;;;5041781;28;20053;-68
2023/07/22 04:52:39;;;;;;;13.93;7.25;;;12.20;99.90;;;;;;5051157;28;20047;-68
2023/07/22 04:55:08;;;;;;;13.82;7.05;;;12.30;99.90;;;;;;5046583;28;20496;-68
2023/07/22 04:57:45;;;;;;;12.00;6.82;;;12.30;99.90;;;;;;5040155;28;20037;-69
2023/07/22 05:00:16;;;;;;;14.23;6.60;;;12.30;99.90;;;;;;5047059;28;20048;-68
2023/07/22 05:02:45;;;;;;;10.25;6.45;;;12.40;99.90;;;;;;5051048;28;20075;-68
2023/07/22 05:05:12;;;;;;;13.77;6.28;;;12.40;99.90;;;;;;5039970;28;20042;-68
2023/07/22 05:07:37;;;;;;;12.68;6.78;;;12.40;99.90;;;;;;5042634;28;20120;-68
2023/07/22 05:10:03;;;;;;;14.02;7.03;;;12.50;99.90;;;;;;5048609;28;20599;-69
2023/07/22 05:12:29;;;;;;;16.02;6.80;;;12.60;99.90;;;;;;5043396;28;20128;-67
2023/07/22 05:14:54;;;;;;;19.48;7.70;;;12.60;99.90;;;;;;5043060;28;20065;-68
2023/07/22 05:17:21;;;;;;;13.30;6.93;;;12.60;99.90;;;;;;5043246;28;20402;-68
2023/07/22 05:19:48;;;;;;;15.90;7.18;;;12.70;99.90;;;;;;5043114;28;20052;-68
2023/07/22 05:22:14;;;;;;;12.48;6.68;;;12.80;99.90;;;;;;5042335;28;20052;-67
2023/07/22 05:24:40;;;;;;;15.02;7.68;;;12.80;99.90;;;;;;5045893;28;20037;-68
2023/07/22 05:27:06;;;;;;;16.15;7.50;;;12.90;99.90;;;;;;5039376;28;20088;-68
2023/07/22 05:29:31;;;;;;;18.40;7.60;;;12.90;99.90;;;;;;5041132;28;20403;-68
2023/07/22 05:31:57;;;;;;;17.77;7.95;;;13.00;99.90;;;;;;5042483;28;20054;-68
2023/07/22 05:34:22;;;;;;;13.38;7.63;;;13.00;99.90;;;;;;5050397;28;20053;-68
2023/07/22 05:36:48;;;;;;;16.42;8.60;;;13.10;99.90;;;;;;5041045;28;20152;-68
2023/07/22 05:39:17;;;;;;;14.88;7.93;;;13.20;99.90;;;;;;5042177;28;20468;-68
2023/07/22 05:41:43;;;;;;;14.38;8.23;;;13.20;99.90;;;;;;5041853;28;20051;-68
2023/07/22 05:44:08;;;;;;;16.15;8.73;;;13.40;99.90;;;;;;5049849;28;20604;-68
2023/07/22 05:46:34;;;;;;;16.38;8.20;;;13.40;99.90;;;;;;5045679;28;20081;-69
2023/07/22 05:48:59;;;;;;;17.17;8.57;;;13.50;99.90;;;;;;5042264;28;20049;-68
2023/07/22 05:51:26;;;;;;;14.98;8.02;;;13.60;99.90;;;;;;5042175;28;20045;-69
2023/07/22 05:53:52;;;;;;;16.75;9.10;;;13.60;99.90;;;;;;5040302;28;20041;-68
2023/07/22 05:56:17;;;;;;;16.38;8.82;;;13.70;99.90;;;;;;5050560;28;20106;-68
2023/07/22 05:58:43;;;;;;;21.67;9.15;;;13.80;99.90;;;;;;5041438;28;20077;-68
2023/07/22 06:01:09;;;;;;;15.45;8.73;;;13.90;99.90;;;;;;5040748;28;20463;-68
2023/07/22 06:03:34;;;;;;;17.20;9.25;;;14.00;99.90;;;;;;5050380;28;20051;-68
2023/07/22 06:06:00;;;;;;;16.63;8.20;;;14.10;99.90;;;;;;5049765;28;20423;-68
2023/07/22 06:08:25;;;;;;;19.30;9.10;;;14.10;99.90;;;;;;5041605;28;20127;-68
2023/07/22 06:10:52;;;;;;;18.42;9.57;;;14.20;99.90;;;;;;5040415;28;20045;-68
2023/07/22 06:13:17;;;;;;;18.27;9.27;;;14.30;99.90;;;;;;5048767;28;20056;-68
2023/07/22 06:15:43;;;;;;;16.10;9.40;;;14.30;99.90;;;;;;5050326;28;20037;-68
2023/07/22 06:18:08;;;;;;;17.00;9.55;;;14.40;99.90;;;;;;5041867;28;20041;-68
2023/07/22 06:20:35;;;;;;;16.58;9.88;;;14.50;99.90;;;;;;5041922;28;20724;-68
2023/07/22 06:23:02;;;;;;;17.88;9.77;;;14.80;99.90;;;;;;5041884;28;20049;-68
2023/07/22 06:25:27;;;;;;;18.05;9.70;;;14.70;99.90;;;;;;5042350;28;20051;-68
2023/07/22 06:27:56;;;;;;;21.30;10.77;;;14.80;99.90;;;;;;5041788;28;20069;-66
2023/07/22 06:30:22;;;;;;;21.00;10.60;;;14.90;99.90;;;;;;5040411;28;20049;-68
2023/07/22 06:32:47;;;;;;;20.02;10.05;;;15.00;99.90;;;;;;5040385;28;20045;-69
2023/07/22 06:35:13;;;;;;;18.65;10.32;;;15.00;99.90;;;;;;5041561;28;20063;-68
2023/07/22 06:37:40;;;;;;;14.88;9.60;;;15.20;99.90;;;;;;5049659;28;20099;-68
2023/07/22 06:40:06;;;;;;;27.05;10.13;;;15.30;99.90;;;;;;5043550;28;20085;-69
2023/07/22 06:42:31;;;;;;;16.95;9.20;;;15.30;99.90;;;;;;5038224;28;20485;-70
2023/07/22 06:44:57;;;;;;;19.58;10.55;;;15.50;99.90;;;;;;5049821;28;20037;-70
2023/07/22 06:47:23;;;;;;;14.23;9.77;;;15.60;99.90;;;;;;5043132;28;20048;-71
2023/07/22 06:49:48;;;;;;;16.33;10.23;;;15.70;99.90;;;;;;5041498;28;20044;-70
2023/07/22 06:52:14;;;;;;;16.83;10.15;;;15.80;99.90;;;;;;5041405;28;20045;-70
2023/07/22 06:54:40;;;;;;;15.60;10.25;;;15.90;99.90;;;;;;5049204;28;20153;-69
2023/07/22 06:57:06;;;;;;;20.45;11.48;;;16.00;99.90;;;;;;5045381;28;20076;-70
2023/07/22 06:59:32;;;;;;;16.15;9.45;;;16.10;99.90;;;;;;5053743;28;20053;-69
2023/07/22 07:01:58;;;;;;;14.35;9.25;;;16.20;99.90;;;;;;5047512;28;20052;-69
2023/07/22 07:04:23;;;;;;;15.75;10.15;;;16.30;99.90;;;;;;5048027;28;20091;-71
2023/07/22 07:06:52;;;;;;;14.32;9.68;;;16.40;99.90;;;;;;5042595;28;20049;-71
2023/07/22 07:09:18;;;;;;;15.80;10.07;;;16.40;99.90;;;;;;5053181;28;20041;-69
2023/07/22 07:11:44;;;;;;;16.20;9.63;;;16.40;99.90;;;;;;5043994;28;20052;-69
2023/07/22 07:14:10;;;;;;;15.52;9.60;;;16.50;99.90;;;;;;5042287;28;20045;-69
2023/07/22 07:16:35;;;;;;;15.13;9.18;;;16.50;99.90;;;;;;5042044;28;20048;-69
2023/07/22 07:19:02;;;;;;;18.58;9.95;;;16.50;99.90;;;;;;5049925;28;20631;-68
2023/07/22 07:21:28;;;;;;;16.92;9.73;;;16.60;99.90;;;;;;5049503;28;20045;-69
2023/07/22 07:23:54;;;;;;;15.60;10.05;;;16.60;99.90;;;;;;5041869;28;20046;-68
2023/07/22 07:26:20;;;;;;;16.77;8.98;;;16.60;99.90;;;;;;5044013;28;20037;-70
2023/07/22 07:28:47;;;;;;;12.65;9.63;;;16.70;99.90;;;;;;5043811;28;20140;-69
2023/07/22 07:31:13;;;;;;;15.15;9.40;;;16.70;99.90;;;;;;5052311;28;20052;-69
2023/07/22 07:33:39;;;;;;;15.02;8.93;;;16.80;99.90;;;;;;5044966;28;20036;-69
2023/07/22 07:36:05;;;;;;;17.58;9.40;;;16.80;99.90;;;;;;5044707;28;20049;-69
2023/07/22 07:38:31;;;;;;;14.70;9.50;;;16.90;99.90;;;;;;5051013;28;20055;-73
2023/07/22 07:41:11;;;;;;;17.02;9.75;;;17.00;99.90;;;;;;5046591;28;20045;-70
2023/07/22 07:43:37;;;;;;;16.25;9.43;;;17.10;99.90;;;;;;5050965;28;20054;-67
2023/07/22 07:46:13;;;;;;;15.10;9.15;;;17.10;99.90;;;;;;5040413;28;20447;-69
2023/07/22 07:48:39;;;;;;;17.08;9.02;;;17.10;99.90;;;;;;5044564;28;20053;-70
2023/07/22 07:51:05;;;;;;;15.98;9.35;;;17.10;99.90;;;;;;5044257;28;20053;-69
2023/07/22 07:53:30;;;;;;;14.60;9.65;;;17.10;99.90;;;;;;5052962;28;20052;-69
2023/07/22 07:55:56;;;;;;;14.25;9.48;;;17.10;99.90;;;;;;5041289;28;20052;-69
2023/07/22 07:58:21;;;;;;;14.73;8.95;;;17.20;99.90;;;;;;5049612;28;20415;-68
2023/07/22 08:00:47;;;;;;;13.30;8.80;;;17.30;99.90;;;;;;5042637;28;20396;-69
2023/07/22 08:03:13;;;;;;;13.13;8.27;;;17.30;99.90;;;;;;5044227;28;20044;-69
2023/07/22 08:05:39;;;;;;;13.82;8.40;;;17.40;99.90;;;;;;5044246;28;20052;-69
2023/07/22 08:08:05;;;;;;;14.55;8.98;;;17.50;99.90;;;;;;5039708;28;20049;-69
2023/07/22 08:10:31;;;;;;;12.35;8.18;;;17.60;99.90;;;;;;5041029;28;20048;-69
2023/07/22 08:12:56;;;;;;;12.85;8.10;;;17.60;99.90;;;;;;5040318;28;20104;-68
2023/07/22 08:15:22;;;;;;;15.45;8.57;;;17.60;99.90;;;;;;5042524;28;20036;-69
2023/07/22 08:17:47;;;;;;;14.63;8.32;;;17.80;99.90;;;;;;5044127;28;20049;-69
2023/07/22 08:20:13;;;;;;;12.73;7.68;;;17.80;99.90;;;;;;5041884;28;20094;-69
2023/07/22 08:22:39;;;;;;;10.90;7.38;;;17.90;99.90;;;;;;5040674;28;20452;-68
2023/07/22 08:25:05;;;;;;;15.23;8.48;;;18.10;99.90;;;;;;5041001;28;20056;-68
2023/07/22 08:27:30;;;;;;;13.10;8.38;;;18.20;99.90;;;;;;5043635;28;20057;-68
2023/07/22 08:29:57;;;;;;;10.57;7.60;;;18.20;99.90;;;;;;5043909;28;20068;-69
2023/07/22 08:32:23;;;;;;;14.25;7.65;;;18.40;99.90;;;;;;5040430;28;20521;-69
2023/07/22 08:34:48;;;;;;;12.07;7.57;;;18.40;99.90;;;;;;5040744;28;20045;-69
2023/07/22 08:37:14;;;;;;;12.02;7.30;;;18.40;99.90;;;;;;5039410;28;20049;-68
2023/07/22 08:39:40;;;;;;;11.13;7.53;;;18.40;99.90;;;;;;5043685;28;20044;-68
2023/07/22 08:42:07;;;;;;;12.10;7.68;;;18.40;99.90;;;;;;5043851;28;20049;-68
2023/07/22 08:44:36;;;;;;;10.80;6.55;;;18.50;99.90;;;;;;5041998;28;20037;-68
2023/07/22 08:47:03;;;;;;;10.15;7.07;;;18.60;99.90;;;;;;5038554;28;20056;-68
2023/07/22 08:49:30;;;;;;;10.27;6.95;;;18.60;99.90;;;;;;5040566;28;20053;-69
2023/07/22 08:51:57;;;;;;;11.52;6.90;;;18.60;99.90;;;;;;5043111;28;20091;-68
2023/07/22 08:54:23;;;;;;;9.68;6.72;;;18.60;99.90;;;;;;5043184;28;20053;-69
2023/07/22 08:56:50;;;;;;;12.32;7.00;;;18.70;99.90;;;;;;5041173;28;20060;-68
2023/07/22 08:59:18;;;;;;;13.30;7.57;;;18.80;99.90;;;;;;5040412;28;20095;-68
2023/07/22 09:01:45;;;;;;;11.52;7.50;;;18.80;99.90;;;;;;5040567;28;20029;-67
2023/07/22 09:04:11;;;;;;;11.70;7.60;;;18.70;99.90;;;;;;5043185;28;20045;-67
2023/07/22 09:06:37;;;;;;;12.65;7.20;;;18.70;99.90;;;;;;5043007;28;20133;-67
2023/07/22 09:09:08;;;;;;;13.80;8.00;;;18.60;99.90;;;;;;5040458;28;20468;-68
2023/07/22 09:11:34;;;;;;;17.08;7.85;;;18.60;99.90;;;;;;5040200;28;20103;-68
2023/07/22 09:14:03;;;;;;;16.33;8.93;;;18.50;99.90;;;;;;5041402;28;20045;-69
2023/07/22 09:16:29;;;;;;;19.98;9.68;;;18.30;99.90;;;;;;5042597;28;20048;-69
2023/07/22 09:18:57;;;;;;;16.58;9.05;;;18.10;99.90;;;;;;5042130;28;20057;-68
2023/07/22 09:21:23;;;;;;;16.88;9.35;;;17.90;99.90;;;;;;5050074;28;20044;-68
2023/07/22 09:23:48;;;;;;;17.42;8.20;;;17.70;99.90;;;;;;5049042;28;20048;-68
2023/07/22 09:26:17;;;;;;;11.82;7.88;;;17.60;99.90;;;;;;5050587;28;20033;-68
2023/07/22 09:28:52;;;;;;;13.75;7.10;;;17.40;99.90;;;;;;5050856;28;20537;-67
2023/07/22 09:31:20;;;;;;;11.63;7.82;;;17.40;99.90;;;;;;5042763;28;20049;-67
2023/07/22 09:33:46;;;;;;;13.48;7.28;;;17.20;99.90;;;;;;5042229;28;20055;-71
2023/07/22 09:36:12;;;;;;;12.23;7.28;;;17.30;99.90;;;;;;5042773;28;20045;-67
2023/07/22 09:38:37;;;;;;;10.75;6.57;;;17.30;99.90;;;;;;5042983;28;20037;-68
2023/07/22 09:41:03;;;;;;;10.63;7.15;;;17.30;99.90;;;;;;5042558;28;20413;-68
2023/07/22 09:43:30;;;;;;;13.40;7.32;;;17.30;99.90;;;;;;5041988;28;20045;-67
2023/07/22 09:45:55;;;;;;;11.90;7.82;;;17.40;99.90;;;;;;5046041;28;20071;-68
2023/07/22 09:48:22;;;;;;;13.40;8.45;;;17.40;99.90;;;;;;5038875;28;20492;-68
2023/07/22 09:51:06;;;;;;;15.80;8.95;;;17.50;99.90;;;;;;5042142;28;20068;-69
2023/07/22 09:53:31;;;;;;;13.32;8.82;;;17.60;99.90;;;;;;5042071;28;20045;-67
2023/07/22 09:56:04;;;;;;;10.93;7.47;;;17.70;99.90;;;;;;5038876;28;20044;-67
2023/07/22 09:58:30;;;;;;;13.93;8.68;;;17.60;99.90;;;;;;5047402;28;20048;-67
2023/07/22 10:00:57;;;;;;;13.98;8.15;;;17.60;99.90;;;;;;5042224;28;20037;-68
2023/07/22 10:03:26;;;;;;;12.50;7.63;;;17.60;99.90;;;;;;5041900;28;20068;-68
2023/07/22 10:05:53;;;;;;;12.75;7.30;;;17.60;99.90;;;;;;5048346;28;20063;-68
2023/07/22 10:08:21;;;;;;;12.60;7.25;;;17.50;99.90;;;;;;5041895;28;20586;-68
2023/07/22 10:10:51;;;;;;;10.88;6.43;;;17.60;99.90;;;;;;5041797;28;20069;-68
2023/07/22 10:13:17;;;;;;;9.38;6.53;;;17.50;99.90;;;;;;5039001;28;20072;-69
2023/07/22 10:15:45;;;;;;;8.18;5.68;;;17.60;99.90;;;;;;5038576;28;20536;-67
2023/07/22 10:18:11;;;;;;;7.35;4.82;;;17.50;99.90;;;;;;5040795;28;20037;-68
2023/07/22 10:20:38;;;;;;;7.85;4.82;;;17.40;99.90;;;;;;5040313;28;20488;-67
2023/07/22 10:23:07;;;;;;;6.70;4.85;;;17.30;99.90;;;;;;5041062;28;20044;-67
2023/07/22 10:25:33;;;;;;;6.78;4.95;;;17.20;99.90;;;;;;5038705;28;20515;-68
2023/07/22 10:27:59;;;;;;;7.75;4.60;;;17.20;99.90;;;;;;5038271;28;20209;-68
2023/07/22 10:30:24;;;;;;;9.10;4.95;;;17.20;99.90;;;;;;5041120;28;20481;-68
2023/07/22 10:32:53;;;;;;;8.80;5.28;;;17.10;99.90;;;;;;5041484;28;20059;-67
2023/07/22 10:35:32;;;;;;;8.02;5.05;;;17.10;99.90;;;;;;5040146;28;20060;-68
2023/07/22 10:38:18;;;;;;;12.15;4.70;;;17.10;99.90;;;;;;5038550;28;20057;-68
2023/07/22 10:40:50;;;;;;;8.85;4.65;;;17.00;99.90;;;;;;5042312;28;20049;-68
2023/07/22 10:43:20;;;;;;;7.70;4.82;;;17.00;99.90;;;;;;5041739;28;20045;-68
2023/07/22 10:45:53;;;;;;;8.07;4.80;;;17.00;99.90;;;;;;5041461;28;20404;-67
2023/07/22 10:48:20;;;;;;;8.70;5.45;;;17.00;99.90;;;;;;5050002;28;20052;-68
2023/07/22 10:50:54;;;;;;;9.45;4.35;;;17.00;99.90;;;;;;5039748;28;20041;-68
2023/07/22 10:53:26;;;;;;;5.70;4.50;;;16.90;99.90;;;;;;5045911;28;20187;-66
2023/07/22 10:56:13;;;;;;;8.07;5.00;;;17.00;99.90;;;;;;5046697;28;20049;-67
2023/07/22 10:58:44;;;;;;;7.10;4.97;;;17.00;99.90;;;;;;5046669;28;20053;-68
2023/07/22 11:01:28;;;;;;;9.02;5.70;;;17.00;99.90;;;;;;5038373;28;20037;-68
2023/07/22 11:04:32;;;;;;;8.13;5.38;;;16.90;99.90;;;;;;5040169;28;20048;-68
2023/07/22 11:07:05;;;;;;;7.88;5.35;;;16.90;99.90;;;;;;5038363;28;20084;-70
2023/07/22 11:09:31;;;;;;;8.80;5.50;;;16.90;99.90;;;;;;5038337;28;20065;-69
2023/07/22 11:12:16;;;;;;;8.57;5.13;;;16.90;99.90;;;;;;5045951;28;20511;-67
2023/07/22 11:14:50;;;;;;;7.93;5.20;;;16.90;99.90;;;;;;5038281;28;20095;-68
2023/07/22 11:17:17;;;;;;;7.53;5.35;;;16.90;99.90;;;;;;5041977;28;20404;-68
2023/07/22 11:19:43;;;;;;;9.30;5.65;;;16.90;99.90;;;;;;5041640;28;20045;-67
2023/07/22 11:22:10;;;;;;;10.07;6.18;;;16.90;99.90;;;;;;5039671;28;20044;-68
2023/07/22 11:24:36;;;;;;;8.45;6.47;;;16.90;99.90;;;;;;5038585;28;20455;-68
2023/07/22 11:27:08;;;;;;;10.48;6.07;;;16.80;99.90;;;;;;5040429;28;20470;-67
2023/07/22 11:29:34;;;;;;;8.23;5.97;;;16.80;99.90;;;;;;5042742;28;20118;-68
2023/07/22 11:32:01;;;;;;;12.10;6.72;;;16.80;99.90;;;;;;5044344;28;20918;-67
2023/07/22 11:34:27;;;;;;;10.35;6.75;;;16.80;99.90;;;;;;5047767;28;20037;-66
2023/07/22 11:36:54;;;;;;;11.38;7.30;;;16.80;99.90;;;;;;5049320;28;20111;-65
2023/07/22 11:39:21;;;;;;;9.70;6.05;;;16.80;99.90;;;;;;5034125;28;20041;-67
2023/07/22 11:41:48;;;;;;;10.63;7.28;;;16.80;99.90;;;;;;5044978;28;20493;-68
2023/07/22 11:44:16;;;;;;;11.95;7.28;;;16.80;99.90;;;;;;5048148;28;20048;-67
2023/07/22 11:46:53;;;;;;;9.05;6.50;;;16.70;99.90;;;;;;5039024;28;20052;-67
2023/07/22 11:49:28;;;;;;;11.02;6.82;;;16.70;99.90;;;;;;5046056;28;20053;-68
2023/07/22 11:52:02;;;;;;;9.77;7.18;;;16.70;99.90;;;;;;5044712;28;20053;-68
2023/07/22 11:54:28;;;;;;;13.05;7.57;;;16.70;99.90;;;;;;5052537;28;20041;-68
2023/07/22 11:56:55;;;;;;;10.88;7.90;;;16.70;99.90;;;;;;5044357;28;20128;-69
2023/07/22 11:59:36;;;;;;;11.10;7.72;;;16.70;99.90;;;;;;5043346;28;20077;-71
2023/07/22 12:02:07;;;;;;;13.52;9.18;;;16.70;99.90;;;;;;5044926;28;20048;-69
2023/07/22 12:04:36;;;;;;;12.68;8.23;;;16.80;99.90;;;;;;5044589;28;20083;-68
2023/07/22 12:07:04;;;;;;;14.77;9.02;;;16.80;99.90;;;;;;5043996;28;20060;-69
2023/07/22 12:09:29;;;;;;;12.05;9.07;;;16.80;99.90;;;;;;5043850;28;20076;-69
2023/07/22 12:11:59;;;;;;;12.90;9.05;;;16.80;99.90;;;;;;5041752;28;20514;-70
2023/07/22 12:14:33;;;;;;;12.32;9.00;;;16.80;99.90;;;;;;5041351;28;20045;-69
2023/07/22 12:16:59;;;;;;;12.82;9.02;;;16.90;99.90;;;;;;5042078;28;20055;-69
2023/07/22 12:19:28;;;;;;;13.02;9.05;;;16.90;99.90;;;;;;5043679;28;20115;-67
2023/07/22 12:21:53;;;;;;;12.68;8.65;;;16.80;99.90;;;;;;5051956;28;20076;-68
2023/07/22 12:24:19;;;;;;;11.45;9.02;;;16.80;99.90;;;;;;5043426;28;20087;-68
2023/07/22 12:26:44;;;;;;;13.20;7.90;;;16.80;99.90;;;;;;5049446;28;20136;-68
2023/07/22 12:29:11;;;;;;;12.40;8.90;;;16.80;99.90;;;;;;5042784;28;20164;-69
2023/07/22 12:31:36;;;;;;;11.77;8.98;;;16.80;99.90;;;;;;5043371;28;20107;-67
2023/07/22 12:34:02;;;;;;;11.63;8.70;;;16.90;99.90;;;;;;5040748;28;20484;-67
2023/07/22 12:36:28;;;;;;;11.75;8.48;;;16.90;99.90;;;;;;5042557;28;20400;-68
2023/07/22 12:38:53;;;;;;;11.02;8.43;;;16.90;99.90;;;;;;5045262;28;20132;-68